Time;durP1;ratioP1;P1;durP2;ratioP2;P2;SDS_P1;SDS_P2;PMS_P1;PMS_P2;Temp;Humidity;BMP_temperature;BMP_pressure;BME280_temperature;BME280_humidity;BME280_pressure;Samples;Min_cycle;Max_cycle;Signal;HPM_P1;HPM_P2
2021/07/04 00:02:06;;;;;;;17.45;12.85;;;;;;;17.50;94.79;101246.03;5070713;28;20157;-60
2021/07/04 00:04:34;;;;;;;21.98;15.82;;;;;;;17.50;95.08;101248.88;5068906;28;20123;-61
2021/07/04 00:07:02;;;;;;;17.27;13.10;;;;;;;17.50;95.17;101248.88;5069318;28;20478;-59
2021/07/04 00:09:30;;;;;;;16.92;13.68;;;;;;;17.52;95.30;101251.34;5070379;28;20485;-60
2021/07/04 00:11:58;;;;;;;17.40;13.60;;;;;;;17.52;95.39;101251.34;5069764;28;20090;-59
2021/07/04 00:14:26;;;;;;;15.15;11.02;;;;;;;17.50;95.69;101246.03;5070441;28;20036;-59
2021/07/04 00:16:55;;;;;;;17.38;12.63;;;;;;;17.50;95.51;101246.03;5067800;28;20048;-59
2021/07/04 00:19:23;;;;;;;18.83;14.05;;;;;;;17.49;95.58;101247.22;5069754;28;20043;-60
2021/07/04 00:21:51;;;;;;;18.10;12.50;;;;;;;17.48;95.57;101248.38;5069396;28;20094;-60
2021/07/04 00:24:19;;;;;;;19.83;15.20;;;;;;;17.48;95.63;101239.91;5070175;28;20131;-61
2021/07/04 00:26:47;;;;;;;16.40;12.35;;;;;;;17.48;95.73;101242.72;5070076;28;20080;-59
2021/07/04 00:29:15;;;;;;;19.33;14.38;;;;;;;17.45;95.71;101232.13;5073922;28;20053;-60
2021/07/04 00:31:43;;;;;;;19.95;14.65;;;;;;;17.45;95.94;101231.28;5074184;28;20067;-57
2021/07/04 00:34:12;;;;;;;16.88;13.57;;;;;;;17.45;95.95;101240.56;5073450;28;20118;-59
2021/07/04 00:36:40;;;;;;;20.83;15.98;;;;;;;17.43;96.18;101234.44;5073900;28;20457;-56
2021/07/04 00:39:08;;;;;;;22.33;16.52;;;;;;;17.43;96.05;101234.44;5071778;28;20064;-59
2021/07/04 00:41:36;;;;;;;21.75;15.27;;;;;;;17.41;95.96;101236.75;5072502;28;20045;-59
2021/07/04 00:44:04;;;;;;;21.25;15.60;;;;;;;17.40;96.30;101237.94;5074029;28;20119;-58
2021/07/04 00:46:32;;;;;;;20.83;16.52;;;;;;;17.39;96.47;101236.28;5060806;28;20047;-59
2021/07/04 00:49:02;;;;;;;19.80;14.90;;;;;;;17.38;96.44;101231.00;5073470;28;20053;-57
2021/07/04 00:51:33;;;;;;;23.00;17.45;;;;;;;17.37;96.38;101229.34;5072442;28;20044;-58
2021/07/04 00:54:02;;;;;;;21.25;15.75;;;;;;;17.36;96.68;101227.69;5071413;28;20056;-57
2021/07/04 00:56:30;;;;;;;20.42;16.15;;;;;;;17.35;96.64;101226.84;5072385;28;20052;-56
2021/07/04 00:58:59;;;;;;;23.23;16.38;;;;;;;17.33;97.06;101220.72;5073650;28;20057;-59
2021/07/04 01:01:27;;;;;;;19.77;14.57;;;;;;;17.33;96.93;101217.06;5070287;28;20040;-56
2021/07/04 01:03:55;;;;;;;25.38;17.42;;;;;;;17.34;97.17;101216.72;5073695;28;20052;-58
2021/07/04 01:06:23;;;;;;;21.52;16.13;;;;;;;17.34;97.30;101213.91;5073046;28;20051;-58
2021/07/04 01:08:52;;;;;;;21.77;16.27;;;;;;;17.36;97.20;101219.22;5071330;28;20424;-57
2021/07/04 01:11:21;;;;;;;24.25;16.63;;;;;;;17.33;97.23;101212.25;5073300;28;20474;-55
2021/07/04 01:13:48;;;;;;;26.17;18.85;;;;;;;17.33;97.25;101206.59;5073328;28;20135;-59
2021/07/04 01:16:18;;;;;;;24.17;18.63;;;;;;;17.33;97.32;101209.44;5071292;28;20063;-57
2021/07/04 01:18:47;;;;;;;25.33;19.50;;;;;;;17.29;97.41;101205.63;5073062;28;20455;-57
2021/07/04 01:21:27;;;;;;;22.95;16.75;;;;;;;17.26;97.78;101211.09;5071540;28;20075;-56
2021/07/04 01:23:56;;;;;;;27.23;19.42;;;;;;;17.25;97.63;101212.25;5072976;28;20041;-58
2021/07/04 01:26:25;;;;;;;28.85;19.05;;;;;;;17.24;97.84;101202.97;5073251;28;20080;-58
2021/07/04 01:28:53;;;;;;;25.38;18.42;;;;;;;17.22;98.05;101197.66;5072259;28;20136;-57
2021/07/04 01:31:22;;;;;;;31.17;20.88;;;;;;;17.20;97.94;101197.16;5071353;28;20098;-57
2021/07/04 01:33:58;;;;;;;27.25;19.98;;;;;;;17.18;98.16;101198.69;5071981;28;20393;-56
2021/07/04 01:36:37;;;;;;;28.27;20.25;;;;;;;17.15;98.33;101188.91;5072404;28;20036;-58
2021/07/04 01:39:09;;;;;;;26.08;19.83;;;;;;;17.15;98.46;101193.72;5072357;28;20053;-57
2021/07/04 01:41:43;;;;;;;25.48;19.38;;;;;;;17.16;98.51;101192.56;5072674;28;20052;-57
2021/07/04 01:44:18;;;;;;;24.42;17.85;;;;;;;17.17;98.75;101197.03;5071182;28;20053;-58
2021/07/04 01:46:46;;;;;;;21.85;16.25;;;;;;;17.18;98.85;101193.88;5072815;28;20040;-58
2021/07/04 01:49:14;;;;;;;24.90;17.65;;;;;;;17.19;98.85;101189.88;5071100;28;20098;-56
2021/07/04 01:51:44;;;;;;;27.67;18.42;;;;;;;17.21;98.83;101187.53;5071186;28;20059;-56
2021/07/04 01:54:21;;;;;;;25.45;17.23;;;;;;;17.20;98.93;101185.06;5072156;28;20048;-53
2021/07/04 01:56:49;;;;;;;25.77;18.23;;;;;;;17.20;99.13;101185.06;5071999;28;20052;-51
2021/07/04 01:59:17;;;;;;;27.17;19.77;;;;;;;17.20;98.98;101185.06;5071210;28;20417;-59
2021/07/04 02:02:04;;;;;;;26.25;17.02;;;;;;;17.16;99.16;101187.75;5072869;28;20106;-56
2021/07/04 02:04:38;;;;;;;28.52;20.67;;;;;;;17.15;99.16;101188.91;5070585;28;20052;-56
2021/07/04 02:07:19;;;;;;;;;;;;;;;17.02;99.05;101175.81;5071472;28;20049;-58
2021/07/04 02:09:52;;;;;;;28.35;20.08;;;;;;;17.02;99.79;101177.81;5072416;28;20377;-54
2021/07/04 02:12:24;;;;;;;27.15;18.80;;;;;;;17.08;99.78;101182.09;5070489;28;20036;-55
2021/07/04 02:14:55;;;;;;;26.55;18.05;;;;;;;17.08;99.55;101177.31;5070959;28;20037;-56
2021/07/04 02:17:38;;;;;;;33.10;19.13;;;;;;;17.09;99.94;101175.31;5070251;28;20048;-53
2021/07/04 02:20:37;;;;;;;26.27;17.23;;;;;;;17.08;99.82;101171.66;5070887;28;20048;-53
2021/07/04 02:23:23;;;;;;;35.13;23.35;;;;;;;17.10;99.88;101176.97;5071686;28;20186;-55
2021/07/04 02:26:07;;;;;;;28.65;19.75;;;;;;;17.10;99.80;101179.78;5070267;28;20440;-55
2021/07/04 02:28:39;;;;;;;32.13;22.63;;;;;;;17.10;100.00;101174.16;5065106;28;20456;-57
2021/07/04 02:31:16;;;;;;;24.42;18.52;;;;;;;17.09;100.00;101178.97;5071702;28;20056;-52
2021/07/04 02:33:44;;;;;;;26.08;17.45;;;;;;;17.08;100.00;101170.81;5064057;28;20049;-56
2021/07/04 02:36:14;;;;;;;26.15;18.13;;;;;;;17.06;100.00;101165.53;5070225;28;20398;-56
2021/07/04 02:38:42;;;;;;;29.05;20.80;;;;;;;17.05;100.00;101175.16;5070896;28;20554;-55
2021/07/04 02:41:12;;;;;;;27.15;18.67;;;;;;;17.05;100.00;101179.97;5070361;28;20048;-58
2021/07/04 02:43:40;;;;;;;31.17;21.65;;;;;;;17.03;100.00;101173.81;5071503;28;20049;-59
2021/07/04 02:46:12;;;;;;;21.42;15.13;;;;;;;17.03;100.00;101177.47;5069700;28;20068;-60
2021/07/04 02:48:40;;;;;;;29.98;20.83;;;;;;;17.06;100.00;101178.78;5069822;28;20040;-56
2021/07/04 02:51:08;;;;;;;29.35;20.73;;;;;;;17.06;100.00;101173.97;5070832;28;20504;-56
2021/07/04 02:53:37;;;;;;;31.73;20.73;;;;;;;17.07;100.00;101175.66;5070652;28;20518;-58
2021/07/04 02:56:15;;;;;;;32.40;22.77;;;;;;;17.05;100.00;101172.31;5070127;28;20052;-56
2021/07/04 02:58:43;;;;;;;30.88;21.60;;;;;;;17.06;100.00;101170.34;5069707;28;20139;-56
2021/07/04 03:01:12;;;;;;;31.33;22.80;;;;;;;17.05;100.00;101171.50;5069351;28;20095;-54
2021/07/04 03:03:40;;;;;;;27.52;20.27;;;;;;;17.06;100.00;101173.16;5071539;28;20093;-59
2021/07/04 03:06:08;;;;;;;23.88;18.15;;;;;;;17.07;100.00;101167.19;5071329;28;20052;-59
2021/07/04 03:08:37;;;;;;;30.52;20.17;;;;;;;17.09;100.00;101173.31;5059578;28;20052;-57
2021/07/04 03:11:05;;;;;;;22.83;16.08;;;;;;;17.10;100.00;101169.34;5071123;28;20047;-58
2021/07/04 03:13:38;;;;;;;25.40;18.60;;;;;;;17.10;100.00;101171.31;5070109;28;20059;-57
2021/07/04 03:16:07;;;;;;;22.85;16.55;;;;;;;17.13;100.00;101167.84;5068008;28;20094;-59
2021/07/04 03:18:35;;;;;;;22.35;17.13;;;;;;;17.17;100.00;101166.00;5069821;28;20048;-58
2021/07/04 03:21:05;;;;;;;21.08;16.27;;;;;;;17.18;100.00;101160.03;5070593;28;20471;-56
2021/07/04 03:23:33;;;;;;;23.48;17.15;;;;;;;17.20;100.00;101157.69;5069498;28;20072;-58
2021/07/04 03:26:06;;;;;;;22.05;16.30;;;;;;;17.22;100.00;101154.53;5069480;28;20056;-59
2021/07/04 03:28:34;;;;;;;18.73;13.63;;;;;;;17.26;100.00;101154.69;5070533;28;20068;-59
2021/07/04 03:31:16;;;;;;;17.15;13.20;;;;;;;17.26;100.00;101155.50;5069466;28;20052;-60
2021/07/04 03:33:46;;;;;;;14.77;11.50;;;;;;;17.29;100.00;101162.47;5069457;28;20072;-56
2021/07/04 03:36:14;;;;;;;18.85;12.80;;;;;;;17.30;100.00;101153.69;5070172;28;20052;-57
2021/07/04 03:38:43;;;;;;;15.05;11.88;;;;;;;17.29;100.00;101154.00;5070246;28;20048;-57
2021/07/04 03:41:12;;;;;;;12.85;10.55;;;;;;;17.26;100.00;101152.69;5070847;28;20072;-58
2021/07/04 03:43:41;;;;;;;13.70;10.02;;;;;;;17.26;100.00;101149.03;5068687;28;20049;-55
2021/07/04 03:46:09;;;;;;;13.55;10.02;;;;;;;17.27;100.00;101145.88;5063321;28;20151;-58
2021/07/04 03:48:44;;;;;;;12.50;9.63;;;;;;;17.28;100.00;101156.00;5071048;28;20060;-61
2021/07/04 03:51:18;;;;;;;13.90;9.98;;;;;;;17.28;100.00;101155.19;5064267;28;20409;-57
2021/07/04 03:53:47;;;;;;;12.70;9.45;;;;;;;17.31;100.00;101146.88;5070464;28;20374;-57
2021/07/04 03:56:15;;;;;;;13.48;10.02;;;;;;;17.32;100.00;101153.34;5068576;28;20412;-58
2021/07/04 03:58:44;;;;;;;15.30;11.00;;;;;;;17.33;100.00;101155.81;5069194;28;20064;-56
2021/07/04 04:01:18;;;;;;;14.52;11.27;;;;;;;17.35;100.00;101158.31;5070116;28;20044;-56
2021/07/04 04:03:51;;;;;;;17.52;12.80;;;;;;;17.35;100.00;101163.97;5073101;28;20036;-54
2021/07/04 04:06:22;;;;;;;18.08;12.88;;;;;;;17.34;100.00;101157.47;5074591;28;20147;-57
2021/07/04 04:08:59;;;;;;;13.20;11.57;;;;;;;17.36;100.00;101159.97;5074364;28;20449;-58
2021/07/04 04:11:38;;;;;;;15.27;10.63;;;;;;;17.36;100.00;101159.97;5071855;28;20511;-55
2021/07/04 04:14:12;;;;;;;13.27;11.18;;;;;;;17.38;100.00;101163.28;5073378;28;20048;-54
2021/07/04 04:16:43;;;;;;;16.80;11.73;;;;;;;17.38;100.00;101164.13;5074497;28;20123;-53
2021/07/04 04:19:16;;;;;;;12.10;9.80;;;;;;;17.41;100.00;101159.75;5072714;28;20110;-60
2021/07/04 04:21:44;;;;;;;12.38;9.57;;;;;;;17.41;100.00;101163.41;5074377;28;20105;-56
2021/07/04 04:24:12;;;;;;;13.60;9.07;;;;;;;17.41;100.00;101156.94;5073557;28;20032;-56
2021/07/04 04:26:42;;;;;;;15.07;10.90;;;;;;;17.42;100.00;101158.59;5072698;28;20044;-55
2021/07/04 04:29:11;;;;;;;13.13;10.18;;;;;;;17.42;100.00;101162.25;5072562;28;20048;-57
2021/07/04 04:31:39;;;;;;;12.25;9.60;;;;;;;17.43;100.00;101158.25;5072043;28;20052;-56
2021/07/04 04:34:08;;;;;;;10.18;7.07;;;;;;;17.43;99.66;101149.78;5061949;28;20090;-55
2021/07/04 04:36:37;;;;;;;9.65;7.13;;;;;;;17.43;99.38;101155.44;5073926;28;20064;-60
2021/07/04 04:39:05;;;;;;;10.05;6.15;;;;;;;17.41;99.40;101157.78;5073375;28;20123;-55
2021/07/04 04:41:34;;;;;;;7.43;5.72;;;;;;;17.41;99.09;101156.94;5074226;28;20497;-57
2021/07/04 04:44:01;;;;;;;7.50;5.57;;;;;;;17.38;98.68;101152.81;5070383;28;20086;-54
2021/07/04 04:46:29;;;;;;;6.53;4.40;;;;;;;17.36;98.56;101149.50;5073377;28;20094;-52
2021/07/04 04:48:57;;;;;;;7.10;4.15;;;;;;;17.33;98.24;101160.63;5073703;28;20059;-54
2021/07/04 04:51:26;;;;;;;6.65;4.20;;;;;;;17.29;98.10;101154.84;5072529;28;20135;-54
2021/07/04 04:53:55;;;;;;;6.50;3.97;;;;;;;17.28;97.86;101158.00;5072873;28;20056;-55
2021/07/04 04:56:23;;;;;;;7.18;4.35;;;;;;;17.26;97.64;101165.97;5073326;28;20103;-54
2021/07/04 04:58:51;;;;;;;5.63;3.70;;;;;;;17.22;97.34;101163.81;5073746;28;20052;-55
2021/07/04 05:01:19;;;;;;;5.80;3.63;;;;;;;17.23;97.33;101170.28;5069781;28;20114;-54
2021/07/04 05:03:47;;;;;;;5.03;4.20;;;;;;;17.21;96.98;101153.69;5073532;28;20048;-52
2021/07/04 05:06:15;;;;;;;6.05;4.03;;;;;;;17.22;96.93;101160.16;5072227;28;20040;-53
2021/07/04 05:08:42;;;;;;;7.40;4.40;;;;;;;17.22;96.60;101152.53;5070072;28;20049;-52
2021/07/04 05:11:12;;;;;;;6.70;4.25;;;;;;;17.23;96.78;101157.00;5073521;28;20048;-54
2021/07/04 05:13:40;;;;;;;7.75;5.35;;;;;;;17.26;96.60;101154.69;5070742;28;20045;-51
2021/07/04 05:16:09;;;;;;;9.20;5.50;;;;;;;17.30;96.49;101164.13;5073067;28;20044;-53
2021/07/04 05:18:37;;;;;;;6.05;5.28;;;;;;;17.33;96.51;101160.63;5073203;28;20059;-57
2021/07/04 05:21:05;;;;;;;7.43;5.28;;;;;;;17.37;96.40;101156.81;5072098;28;20542;-53
2021/07/04 05:23:33;;;;;;;5.50;4.03;;;;;;;17.40;96.05;101158.09;5072974;28;20127;-58
2021/07/04 05:26:01;;;;;;;7.10;5.22;;;;;;;17.43;96.06;101148.97;5071636;28;20132;-51
2021/07/04 05:28:31;;;;;;;5.95;4.32;;;;;;;17.45;95.73;101155.09;5071172;28;20044;-53
2021/07/04 05:31:01;;;;;;;6.40;4.57;;;;;;;17.47;95.56;101156.44;5061525;28;20052;-58
2021/07/04 05:33:29;;;;;;;4.93;3.90;;;;;;;17.49;95.59;101159.75;5073175;28;20109;-60
2021/07/04 05:35:57;;;;;;;4.40;3.40;;;;;;;17.50;95.22;101161.41;5072523;28;20051;-58
2021/07/04 05:38:32;;;;;;;5.95;4.15;;;;;;;17.54;94.83;101161.56;5072659;28;20054;-52
2021/07/04 05:41:04;;;;;;;5.60;4.07;;;;;;;17.58;94.75;101152.03;5070597;28;20053;-59
2021/07/04 05:43:35;;;;;;;4.65;3.22;;;;;;;17.66;94.10;101166.50;5072543;28;20052;-50
2021/07/04 05:46:04;;;;;;;5.80;3.83;;;;;;;17.75;93.70;101153.19;5069188;28;20452;-53
2021/07/04 05:48:37;;;;;;;5.38;3.63;;;;;;;17.91;93.05;101159.88;5072439;28;20059;-52
2021/07/04 05:51:06;;;;;;;5.82;2.97;;;;;;;18.06;92.11;101159.28;5072394;28;20044;-50
2021/07/04 05:53:35;;;;;;;5.82;3.50;;;;;;;18.18;91.67;101153.72;5072483;28;20165;-53
2021/07/04 05:56:04;;;;;;;4.43;2.95;;;;;;;18.30;91.25;101161.44;5071752;28;20051;-52
2021/07/04 05:58:41;;;;;;;6.10;3.40;;;;;;;18.36;90.66;101164.91;5072648;28;20045;-56
2021/07/04 06:01:09;;;;;;;5.38;3.20;;;;;;;18.37;90.52;101166.56;5072655;28;20432;-51
2021/07/04 06:03:37;;;;;;;3.50;2.42;;;;;;;18.31;89.60;101165.94;5063458;28;20045;-59
2021/07/04 06:06:05;;;;;;;5.15;2.85;;;;;;;18.23;89.39;101166.81;5070397;28;20048;-56
2021/07/04 06:08:33;;;;;;;4.60;2.50;;;;;;;18.17;89.32;101174.69;5070177;28;20079;-53
2021/07/04 06:11:01;;;;;;;5.13;2.80;;;;;;;18.12;89.32;101169.22;5069353;28;20547;-54
2021/07/04 06:13:28;;;;;;;5.40;2.90;;;;;;;18.10;89.60;101165.91;5070621;28;20071;-52
2021/07/04 06:15:59;;;;;;;5.03;2.40;;;;;;;18.09;89.53;101164.25;5070257;28;20078;-56
2021/07/04 06:18:28;;;;;;;5.07;2.40;;;;;;;18.12;89.39;101166.41;5069998;28;20052;-54
2021/07/04 06:20:56;;;;;;;4.50;2.35;;;;;;;18.14;89.08;101160.41;5069912;28;20043;-50
2021/07/04 06:23:24;;;;;;;4.47;2.58;;;;;;;18.14;88.30;101157.59;5069021;28;20044;-49
2021/07/04 06:25:52;;;;;;;4.30;2.70;;;;;;;18.15;88.33;101160.06;5069546;28;20543;-55
2021/07/04 06:28:20;;;;;;;3.97;2.80;;;;;;;18.22;88.22;101151.03;5070241;28;20083;-49
2021/07/04 06:30:48;;;;;;;5.30;3.17;;;;;;;18.36;88.22;101148.78;5069269;28;20440;-51
2021/07/04 06:33:17;;;;;;;4.03;2.70;;;;;;;18.53;88.01;101144.97;5070184;28;20048;-50
2021/07/04 06:35:45;;;;;;;4.93;3.00;;;;;;;18.65;86.96;101149.88;5069999;28;20046;-51
2021/07/04 06:38:13;;;;;;;4.88;2.65;;;;;;;18.81;86.86;101139.56;5069235;28;20040;-52
2021/07/04 06:40:41;;;;;;;3.83;2.38;;;;;;;19.06;87.19;101141.28;5070059;28;20040;-54
2021/07/04 06:43:09;;;;;;;4.43;2.60;;;;;;;19.32;85.61;101141.00;5069823;28;20074;-53
2021/07/04 06:45:41;;;;;;;3.42;2.70;;;;;;;19.51;85.19;101137.63;5068463;28;20389;-60
2021/07/04 06:48:09;;;;;;;4.30;3.10;;;;;;;19.70;84.58;101129.38;5065911;28;20080;-54
2021/07/04 06:50:39;;;;;;;6.68;3.10;;;;;;;19.87;83.46;101131.13;5067303;28;20135;-52
2021/07/04 06:53:07;;;;;;;3.60;2.17;;;;;;;20.03;82.24;101134.06;5068573;28;20098;-51
2021/07/04 06:55:35;;;;;;;3.60;2.22;;;;;;;20.20;82.34;101128.09;5070160;28;20044;-51
2021/07/04 06:58:03;;;;;;;3.88;2.30;;;;;;;20.41;81.02;101125.13;5069305;28;20043;-55
2021/07/04 07:00:31;;;;;;;3.45;2.13;;;;;;;20.57;80.41;101124.03;5068942;28;20436;-60
2021/07/04 07:02:59;;;;;;;3.10;1.90;;;;;;;20.64;79.32;101124.22;5069707;28;20515;-53
2021/07/04 07:05:27;;;;;;;4.43;2.08;;;;;;;20.71;78.87;101120.78;5069075;28;20057;-54
2021/07/04 07:07:56;;;;;;;3.42;2.20;;;;;;;20.80;78.55;101121.41;5068410;28;20516;-54
2021/07/04 07:10:24;;;;;;;3.05;1.80;;;;;;;20.87;77.73;101127.31;5068844;28;20075;-59
2021/07/04 07:12:52;;;;;;;4.45;2.20;;;;;;;20.92;77.22;101126.22;5068867;28;20110;-50
2021/07/04 07:15:25;;;;;;;3.85;2.00;;;;;;;21.05;76.80;101122.13;5069008;28;20115;-55
2021/07/04 07:17:53;;;;;;;4.95;2.05;;;;;;;21.09;75.81;101113.72;5069706;28;20128;-55
2021/07/04 07:20:21;;;;;;;2.80;1.67;;;;;;;21.05;74.56;101115.63;5068854;28;20037;-53
2021/07/04 07:22:49;;;;;;;3.08;2.03;;;;;;;20.95;75.03;101123.50;5067241;28;20063;-58
2021/07/04 07:25:24;;;;;;;3.05;2.00;;;;;;;20.94;75.10;101107.66;5069074;28;20508;-52
2021/07/04 07:27:55;;;;;;;3.05;1.80;;;;;;;21.03;74.86;101112.31;5067464;28;20052;-56
2021/07/04 07:30:23;;;;;;;2.25;1.52;;;;;;;21.12;74.01;101115.81;5069084;28;20074;-56
2021/07/04 07:32:52;;;;;;;3.28;1.80;;;;;;;21.26;73.91;101110.53;5068257;28;20397;-54
2021/07/04 07:35:20;;;;;;;3.03;1.80;;;;;;;21.44;73.35;101111.81;5067322;28;20444;-54
2021/07/04 07:37:51;;;;;;;4.05;2.00;;;;;;;21.56;72.95;101110.91;5065241;28;20044;-56
2021/07/04 07:40:20;;;;;;;3.70;1.80;;;;;;;21.72;73.10;101117.41;5048979;28;20048;-53
2021/07/04 07:42:53;;;;;;;2.80;2.00;;;;;;;21.81;72.16;101117.19;5067011;28;20513;-59
2021/07/04 07:45:21;;;;;;;2.83;1.52;;;;;;;21.90;71.22;101112.13;5067420;28;20079;-51
2021/07/04 07:47:54;;;;;;;4.53;1.90;;;;;;;21.98;71.36;101113.97;5066106;28;20052;-53
2021/07/04 07:50:24;;;;;;;3.10;1.90;;;;;;;22.03;70.17;101121.38;5067116;28;20485;-54
2021/07/04 07:52:52;;;;;;;3.22;1.80;;;;;;;22.01;70.23;101118.91;5068916;28;20075;-57
2021/07/04 07:55:20;;;;;;;6.10;2.10;;;;;;;22.07;70.19;101114.59;5068244;28;20091;-58
2021/07/04 07:57:48;;;;;;;2.80;1.77;;;;;;;22.10;69.42;101116.69;5066776;28;20056;-54
2021/07/04 08:00:18;;;;;;;2.88;1.80;;;;;;;22.18;69.45;101118.50;5068638;28;20465;-57
2021/07/04 08:02:46;;;;;;;3.10;1.90;;;;;;;22.18;69.28;101109.16;5068583;28;20083;-58
2021/07/04 08:05:19;;;;;;;2.60;1.85;;;;;;;22.15;68.52;101113.56;5068922;28;20041;-57
2021/07/04 08:07:47;;;;;;;3.80;2.30;;;;;;;22.13;68.81;101109.47;5068852;28;20094;-60
2021/07/04 08:10:15;;;;;;;3.25;2.03;;;;;;;22.15;68.97;101113.56;5066947;28;20121;-58
2021/07/04 08:12:44;;;;;;;3.85;2.53;;;;;;;22.13;69.55;101101.75;5066265;28;20091;-58
2021/07/04 08:15:13;;;;;;;4.03;2.42;;;;;;;22.11;69.49;101106.16;5068615;28;20041;-57
2021/07/04 08:17:45;;;;;;;2.92;2.00;;;;;;;22.10;68.97;101101.66;5068465;28;20045;-58
2021/07/04 08:20:16;;;;;;;3.50;2.10;;;;;;;22.09;69.00;101097.19;5068923;28;20575;-59
2021/07/04 08:22:44;;;;;;;2.88;2.00;;;;;;;22.02;69.08;101106.34;5068582;28;20112;-57
2021/07/04 08:25:13;;;;;;;4.00;2.60;;;;;;;21.91;70.01;101091.88;5067944;28;20104;-54
2021/07/04 08:27:41;;;;;;;4.20;2.30;;;;;;;22.00;70.27;101092.50;5068706;28;20489;-57
2021/07/04 08:30:12;;;;;;;3.03;2.10;;;;;;;22.09;69.76;101094.34;5068188;28;20052;-59
2021/07/04 08:32:40;;;;;;;3.45;2.03;;;;;;;22.16;69.28;101098.16;5065311;28;20040;-61
2021/07/04 08:35:11;;;;;;;3.33;2.10;;;;;;;22.23;69.46;101098.31;5068404;28;20044;-59
2021/07/04 08:37:39;;;;;;;4.60;2.33;;;;;;;22.21;68.53;101099.88;5064369;28;20509;-59
2021/07/04 08:40:10;;;;;;;3.92;2.00;;;;;;;22.11;67.87;101098.47;5064505;28;20292;-59
2021/07/04 08:42:38;;;;;;;3.80;2.60;;;;;;;22.01;67.72;101096.19;5064956;28;20068;-59
2021/07/04 08:45:07;;;;;;;3.88;2.50;;;;;;;21.97;68.66;101098.09;5063913;28;20048;-61
2021/07/04 08:47:35;;;;;;;4.53;2.28;;;;;;;22.14;68.32;101092.03;5068878;28;20128;-61
2021/07/04 08:50:05;;;;;;;4.25;2.15;;;;;;;22.28;68.65;101100.88;5071912;28;20045;-61
2021/07/04 08:52:36;;;;;;;3.60;1.90;;;;;;;22.45;67.69;101101.63;5071250;28;20094;-60
2021/07/04 08:55:05;;;;;;;2.67;1.77;;;;;;;22.49;67.14;101097.66;5071249;28;20040;-61
2021/07/04 08:57:33;;;;;;;3.38;1.70;;;;;;;22.45;66.36;101098.78;5072300;28;20054;-60
2021/07/04 09:00:01;;;;;;;4.53;1.98;;;;;;;22.48;67.15;101095.19;5071298;28;20065;-59
2021/07/04 09:02:31;;;;;;;2.90;1.75;;;;;;;22.43;65.52;101089.78;5070631;28;20139;-59
2021/07/04 09:05:01;;;;;;;6.57;2.10;;;;;;;22.41;66.12;101092.19;5071650;28;20044;-60
2021/07/04 09:07:29;;;;;;;3.67;2.10;;;;;;;22.61;65.96;101093.81;5069844;28;20105;-59
2021/07/04 09:10:00;;;;;;;3.10;1.90;;;;;;;22.80;65.66;101093.00;5071289;28;20136;-58
2021/07/04 09:12:40;;;;;;;3.47;2.35;;;;;;;22.83;65.56;101087.38;5071076;28;20070;-58
2021/07/04 09:15:11;;;;;;;4.63;2.15;;;;;;;22.75;66.09;101091.28;5071469;28;20055;-59
2021/07/04 09:17:40;;;;;;;3.40;2.00;;;;;;;22.66;66.16;101077.28;5069780;28;20461;-59
2021/07/04 09:20:12;;;;;;;3.88;2.17;;;;;;;22.64;65.31;101090.22;5069228;28;20123;-59
2021/07/04 09:22:41;;;;;;;2.70;1.73;;;;;;;22.56;65.52;101082.75;5068270;28;20040;-56
2021/07/04 09:25:13;;;;;;;4.15;2.05;;;;;;;22.55;66.03;101075.44;5068877;28;20099;-57
2021/07/04 09:27:43;;;;;;;3.67;2.15;;;;;;;22.42;65.80;101076.75;5067943;28;20461;-61
2021/07/04 09:30:15;;;;;;;3.78;2.03;;;;;;;22.30;66.41;101087.09;5070980;28;20135;-61
2021/07/04 09:32:48;;;;;;;3.03;1.70;;;;;;;22.36;66.50;101086.81;5069780;28;20045;-60
2021/07/04 09:35:19;;;;;;;3.38;1.65;;;;;;;22.54;66.28;101079.47;5070124;28;20080;-61
2021/07/04 09:37:51;;;;;;;4.57;1.85;;;;;;;22.71;64.87;101089.56;5071479;28;20055;-57
2021/07/04 09:40:22;;;;;;;;;;;;;;;22.69;65.05;101079.38;5071827;28;20082;-59
2021/07/04 09:43:14;;;;;;;3.05;1.67;;;;;;;22.86;64.83;101083.78;5070531;28;19920;-58
2021/07/04 09:45:53;;;;;;;3.85;1.98;;;;;;;22.88;64.36;101083.41;5070611;28;20047;-59
2021/07/04 09:48:36;;;;;;;3.17;1.70;;;;;;;23.01;65.01;101073.50;5068749;28;20036;-58
2021/07/04 09:51:10;;;;;;;4.35;1.77;;;;;;;23.21;64.38;101082.78;5070482;28;20098;-56
2021/07/04 09:53:41;;;;;;;3.17;1.70;;;;;;;23.15;64.26;101075.78;5067175;28;20051;-59
2021/07/04 09:56:12;;;;;;;2.80;1.58;;;;;;;23.02;64.36;101073.13;5067542;28;20045;-58
2021/07/04 09:58:41;;;;;;;2.93;1.43;;;;;;;23.09;64.43;101077.31;5067158;28;20136;-61
2021/07/04 10:01:09;;;;;;;3.72;1.50;;;;;;;23.13;64.05;101078.19;5069375;28;20090;-60
2021/07/04 10:03:42;;;;;;;2.53;1.33;;;;;;;23.36;63.99;101076.16;5069725;28;20049;-60
2021/07/04 10:06:12;;;;;;;3.30;1.60;;;;;;;23.58;62.60;101077.38;5067814;28;20559;-59
2021/07/04 10:08:41;;;;;;;3.55;1.58;;;;;;;23.65;62.77;101081.13;5068873;28;20432;-60
2021/07/04 10:11:12;;;;;;;3.83;1.70;;;;;;;23.45;63.19;101079.56;5066602;28;20041;-58
2021/07/04 10:13:42;;;;;;;2.88;1.50;;;;;;;23.25;63.93;101069.44;5067401;28;20485;-59
2021/07/04 10:16:12;;;;;;;4.60;1.50;;;;;;;23.28;63.44;101078.06;5068505;28;20055;-59
2021/07/04 10:18:43;;;;;;;3.70;1.77;;;;;;;23.25;63.38;101075.13;5070288;28;20408;-59
2021/07/04 10:21:12;;;;;;;3.58;1.65;;;;;;;22.99;64.13;101064.50;5070062;28;20385;-56
2021/07/04 10:23:46;;;;;;;4.20;1.60;;;;;;;22.86;64.86;101077.28;5069902;28;20041;-59
2021/07/04 10:26:15;;;;;;;3.60;1.50;;;;;;;22.89;64.48;101079.38;5067086;28;20045;-59
2021/07/04 10:28:45;;;;;;;3.72;1.42;;;;;;;22.88;64.35;101072.03;5070211;28;20409;-59
2021/07/04 10:31:16;;;;;;;3.15;1.30;;;;;;;22.74;64.05;101069.72;5069374;28;20063;-55
2021/07/04 10:33:46;;;;;;;3.03;1.50;;;;;;;22.60;63.68;101060.88;5070303;28;20434;-58
2021/07/04 10:36:15;;;;;;;2.47;1.50;;;;;;;22.54;63.85;101056.72;5069587;28;20470;-59
2021/07/04 10:38:54;;;;;;;2.72;1.50;;;;;;;22.65;64.96;101054.88;5069560;28;20098;-57
2021/07/04 10:41:26;;;;;;;4.53;1.70;;;;;;;22.80;64.65;101062.53;5069825;28;20078;-55
2021/07/04 10:44:00;;;;;;;3.53;1.65;;;;;;;22.89;64.56;101050.91;5069456;28;20121;-58
2021/07/04 10:47:14;;;;;;;3.80;1.40;;;;;;;23.01;61.07;101054.38;5069713;28;20512;-57
2021/07/04 10:49:53;;;;;;;3.65;1.60;;;;;;;22.78;62.19;101050.69;5066602;28;20124;-58
2021/07/04 10:52:40;;;;;;;4.28;1.83;;;;;;;22.83;63.37;101047.56;5069174;28;20139;-59
2021/07/04 10:55:10;;;;;;;3.65;1.65;;;;;;;22.88;63.34;101038.72;5067308;28;20501;-58
2021/07/04 10:57:55;;;;;;;3.33;1.40;;;;;;;23.06;63.11;101033.34;5065956;28;20041;-58
2021/07/04 11:00:25;;;;;;;3.28;1.50;;;;;;;23.03;63.49;101036.94;5068072;28;20106;-57
2021/07/04 11:02:56;;;;;;;3.00;1.75;;;;;;;22.85;63.98;101033.75;5069644;28;20040;-59
2021/07/04 11:05:49;;;;;;;4.05;1.80;;;;;;;22.79;64.17;101021.03;5068932;28;20146;-58
2021/07/04 11:08:26;;;;;;;3.05;1.90;;;;;;;22.92;64.88;101018.84;5067074;28;20049;-59
2021/07/04 11:11:02;;;;;;;3.72;1.50;;;;;;;23.05;64.32;101030.84;5068708;28;20044;-59
2021/07/04 11:13:45;;;;;;;2.85;1.52;;;;;;;23.11;64.52;101035.03;5068934;28;20173;-60
2021/07/04 11:16:24;;;;;;;2.45;1.30;;;;;;;23.19;63.57;101042.47;5069435;28;20169;-58
2021/07/04 11:19:06;;;;;;;3.22;1.35;;;;;;;23.21;63.96;101034.38;5069333;28;20436;-58
2021/07/04 11:21:54;;;;;;;4.32;1.55;;;;;;;23.23;63.14;101029.97;5069279;28;20398;-58
2021/07/04 11:24:24;;;;;;;5.10;1.80;;;;;;;23.26;63.29;101032.06;5069211;28;20110;-57
2021/07/04 11:27:19;;;;;;;3.13;1.60;;;;;;;23.22;62.09;101028.31;5068651;28;20048;-52
2021/07/04 11:30:30;;;;;;;3.70;1.50;;;;;;;22.95;62.91;101020.94;5068949;28;20087;-58
2021/07/04 11:33:24;;;;;;;3.35;1.67;;;;;;;22.78;64.21;101015.75;5068491;28;20084;-58
2021/07/04 11:35:55;;;;;;;2.80;1.35;;;;;;;22.89;64.57;101023.28;5069128;28;20105;-57
2021/07/04 11:38:24;;;;;;;3.10;1.52;;;;;;;23.08;64.10;101022.38;5069390;28;20068;-58